Time;durP1;ratioP1;P1;durP2;ratioP2;P2;SDS_P1;SDS_P2;PMS_P1;PMS_P2;Temp;Humidity;BMP_temperature;BMP_pressure;BME280_temperature;BME280_humidity;BME280_pressure;Samples;Min_cycle;Max_cycle;Signal;HPM_P1;HPM_P2
2024/02/16 05:00:58;;;;;;;1.53;1.43;;;9.00;97.30;;;;;;5886569;22;20494;-91
2024/02/16 05:03:24;;;;;;;3.23;1.40;;;9.00;97.30;;;;;;5023766;28;20454;-94
2024/02/16 05:05:52;;;;;;;3.03;1.60;;;9.00;97.30;;;;;;5024590;28;20180;-91
2024/02/16 05:08:18;;;;;;;2.17;2.00;;;9.00;97.30;;;;;;5016187;28;20458;-90
2024/02/16 05:10:44;;;;;;;1.53;1.30;;;9.00;97.30;;;;;;5020678;23;21067;-72
2024/02/16 05:13:11;;;;;;;1.03;1.00;;;9.00;97.30;;;;;;5030413;28;20446;-71
2024/02/16 05:15:36;;;;;;;1.40;1.30;;;9.00;97.30;;;;;;5047732;28;20196;-71
2024/02/16 05:18:02;;;;;;;1.90;1.80;;;8.90;97.30;;;;;;5047650;28;20458;-70
2024/02/16 05:20:27;;;;;;;1.00;0.90;;;8.90;97.30;;;;;;5029802;28;20290;-71
2024/02/16 05:22:53;;;;;;;7.43;1.63;;;8.90;97.30;;;;;;5064984;28;20241;-70
2024/02/16 05:25:22;;;;;;;1.40;1.30;;;8.90;97.30;;;;;;5067726;28;20336;-70
2024/02/16 05:27:47;;;;;;;2.90;2.43;;;8.90;97.30;;;;;;5049456;28;20180;-70
2024/02/16 05:30:15;;;;;;;0.83;0.73;;;8.90;97.30;;;;;;5051171;28;21003;-71
2024/02/16 05:32:44;;;;;;;1.83;1.77;;;8.90;97.30;;;;;;5067845;28;20175;-70
2024/02/16 05:35:16;;;;;;;3.13;1.43;;;8.90;97.30;;;;;;5067839;28;20904;-70
2024/02/16 05:37:44;;;;;;;1.33;1.23;;;8.90;97.30;;;;;;5067844;28;20633;-71
2024/02/16 05:40:30;;;;;;;1.37;1.00;;;8.90;97.30;;;;;;5049469;28;20453;-71
2024/02/16 05:43:00;;;;;;;2.53;2.33;;;8.90;97.30;;;;;;5059096;28;20417;-70
2024/02/16 05:45:28;;;;;;;1.30;1.10;;;9.00;97.30;;;;;;5067430;28;20417;-70
2024/02/16 05:47:54;;;;;;;1.20;1.10;;;9.10;97.30;;;;;;5059004;28;20452;-68
2024/02/16 05:50:21;;;;;;;1.30;1.10;;;9.10;97.30;;;;;;5065025;28;20492;-70
2024/02/16 05:52:46;;;;;;;1.40;0.90;;;9.10;97.30;;;;;;5055832;28;20234;-70
2024/02/16 05:55:13;;;;;;;1.37;1.27;;;9.20;97.30;;;;;;5059736;28;20414;-70
2024/02/16 05:57:38;;;;;;;1.30;1.20;;;9.20;97.30;;;;;;5053658;28;20581;-70
2024/02/16 06:00:05;;;;;;;1.13;1.07;;;9.30;97.30;;;;;;5055448;28;20438;-71
2024/02/16 06:02:32;;;;;;;1.00;0.90;;;9.30;97.30;;;;;;5034810;28;20194;-71
2024/02/16 06:05:02;;;;;;;2.77;1.43;;;9.40;97.30;;;;;;5020977;28;20922;-71
2024/02/16 06:07:28;;;;;;;1.53;1.43;;;9.40;97.30;;;;;;5050936;28;20464;-71
2024/02/16 06:09:55;;;;;;;2.93;1.43;;;9.40;97.30;;;;;;5045105;28;20499;-72
2024/02/16 06:12:21;;;;;;;1.30;1.20;;;9.50;97.30;;;;;;5058010;28;20812;-71
2024/02/16 06:14:48;;;;;;;1.00;0.90;;;9.40;97.30;;;;;;5060895;28;20425;-71
2024/02/16 06:17:14;;;;;;;1.47;1.30;;;9.50;97.30;;;;;;5065723;28;20175;-71
2024/02/16 06:19:40;;;;;;;0.80;0.70;;;9.50;97.30;;;;;;5039667;28;20510;-71
2024/02/16 06:22:08;;;;;;;1.83;1.47;;;9.50;97.30;;;;;;5061037;28;20488;-71
2024/02/16 06:24:33;;;;;;;8.80;1.60;;;9.40;97.30;;;;;;5032783;28;20430;-72
2024/02/16 06:26:59;;;;;;;1.03;0.93;;;9.50;97.30;;;;;;5043175;28;20436;-72
2024/02/16 06:29:24;;;;;;;1.27;1.10;;;9.40;97.30;;;;;;5059137;28;20208;-71
2024/02/16 06:31:50;;;;;;;1.10;1.00;;;9.50;97.30;;;;;;5060607;28;20337;-71
2024/02/16 06:34:16;;;;;;;2.23;1.03;;;9.50;97.30;;;;;;5059674;28;20179;-71
2024/02/16 06:36:42;;;;;;;6.80;1.47;;;9.60;97.30;;;;;;5055218;28;20225;-71
2024/02/16 06:39:09;;;;;;;1.23;1.13;;;9.70;97.30;;;;;;5033842;28;20188;-71
2024/02/16 06:41:35;;;;;;;4.50;1.73;;;9.80;97.30;;;;;;5055447;28;20473;-71
2024/02/16 06:44:00;;;;;;;2.03;1.90;;;10.00;97.30;;;;;;5049570;28;20457;-71
2024/02/16 06:46:27;;;;;;;1.20;1.10;;;10.10;97.30;;;;;;5025869;28;20760;-71
2024/02/16 06:48:56;;;;;;;1.27;1.27;;;10.20;97.30;;;;;;5026507;28;20294;-71
2024/02/16 06:51:22;;;;;;;1.17;1.00;;;10.30;97.30;;;;;;5050564;28;20622;-71
2024/02/16 06:53:48;;;;;;;0.87;0.80;;;10.30;97.30;;;;;;5033804;28;20467;-70
2024/02/16 06:56:13;;;;;;;1.63;1.53;;;10.40;97.30;;;;;;5038308;28;20422;-71
2024/02/16 06:58:39;;;;;;;0.83;0.80;;;10.40;97.30;;;;;;5060521;28;20229;-71
2024/02/16 07:01:04;;;;;;;1.47;1.47;;;10.40;97.30;;;;;;5051616;28;20199;-71
2024/02/16 07:03:30;;;;;;;1.47;1.37;;;10.40;97.30;;;;;;5051595;28;20543;-71
2024/02/16 07:05:56;;;;;;;1.93;0.90;;;10.40;97.30;;;;;;5059200;28;20205;-70
2024/02/16 07:08:23;;;;;;;2.40;1.37;;;10.50;97.30;;;;;;5058938;28;20290;-71
2024/02/16 07:10:51;;;;;;;3.67;1.23;;;10.50;97.30;;;;;;5051943;28;20208;-71
2024/02/16 07:13:17;;;;;;;1.30;1.20;;;10.50;97.30;;;;;;5046561;28;20922;-71
2024/02/16 07:15:43;;;;;;;1.87;1.60;;;10.50;97.30;;;;;;5030400;28;20803;-70
2024/02/16 07:18:09;;;;;;;1.00;0.90;;;10.60;97.30;;;;;;5050666;28;20422;-71
2024/02/16 07:20:36;;;;;;;1.10;1.00;;;10.60;97.30;;;;;;5033620;28;20577;-71
2024/02/16 07:23:02;;;;;;;1.37;1.27;;;10.60;97.30;;;;;;5040237;28;20515;-70
2024/02/16 07:25:28;;;;;;;1.17;1.10;;;10.70;97.30;;;;;;5045336;28;20564;-71
2024/02/16 07:27:54;;;;;;;1.20;1.10;;;10.70;97.30;;;;;;5054350;28;20171;-71
2024/02/16 07:30:19;;;;;;;1.37;1.27;;;10.70;97.30;;;;;;5028260;28;20442;-71
2024/02/16 07:32:50;;;;;;;1.10;1.00;;;10.80;97.30;;;;;;5032222;28;20464;-71
2024/02/16 07:35:16;;;;;;;1.10;1.00;;;10.80;97.30;;;;;;5054756;28;20192;-71
2024/02/16 07:37:42;;;;;;;1.10;1.00;;;10.90;97.30;;;;;;5045351;28;20904;-71
2024/02/16 07:40:09;;;;;;;0.90;0.80;;;11.00;97.30;;;;;;5047047;28;20191;-71
2024/02/16 07:42:39;;;;;;;1.97;1.47;;;11.00;97.30;;;;;;5057344;28;20424;-70
2024/02/16 07:45:05;;;;;;;0.90;0.90;;;11.10;97.30;;;;;;5047822;28;20852;-70
2024/02/16 07:47:32;;;;;;;1.70;1.30;;;11.20;97.30;;;;;;5057841;28;20415;-70
2024/02/16 07:49:57;;;;;;;3.23;1.97;;;11.20;97.30;;;;;;5049391;28;20470;-71
2024/02/16 07:52:23;;;;;;;1.67;1.63;;;11.40;97.30;;;;;;5027011;28;20488;-70
2024/02/16 07:54:51;;;;;;;1.00;0.90;;;11.50;97.30;;;;;;5032664;28;20272;-70
2024/02/16 07:57:17;;;;;;;6.00;2.10;;;11.60;97.30;;;;;;5057216;28;20225;-71
2024/02/16 07:59:43;;;;;;;1.20;1.10;;;11.60;97.30;;;;;;5047119;28;20410;-70
2024/02/16 08:02:09;;;;;;;1.63;1.20;;;11.70;97.30;;;;;;5046774;28;20196;-70
2024/02/16 08:04:35;;;;;;;1.00;0.90;;;11.60;97.30;;;;;;5057171;28;20422;-70
2024/02/16 08:07:01;;;;;;;1.30;1.20;;;11.70;97.30;;;;;;5057214;28;20797;-70
2024/02/16 08:09:27;;;;;;;4.60;2.10;;;11.70;97.30;;;;;;5036180;28;20998;-71
2024/02/16 08:11:52;;;;;;;2.43;1.37;;;11.80;97.30;;;;;;5049886;28;20227;-70
2024/02/16 08:14:18;;;;;;;1.13;1.03;;;11.80;97.30;;;;;;5048069;28;20176;-71
2024/02/16 08:16:43;;;;;;;1.43;1.33;;;11.80;97.30;;;;;;5051342;28;20270;-71
2024/02/16 08:19:09;;;;;;;1.70;1.60;;;11.80;97.30;;;;;;5055668;28;20210;-71
2024/02/16 08:21:34;;;;;;;1.97;1.87;;;11.80;97.30;;;;;;5032019;28;20203;-70
2024/02/16 08:24:00;;;;;;;1.33;1.23;;;11.90;97.30;;;;;;5045282;28;20179;-71
2024/02/16 08:26:25;;;;;;;1.43;1.33;;;12.00;97.30;;;;;;5034054;28;20211;-70
2024/02/16 08:28:51;;;;;;;1.67;1.57;;;12.10;97.30;;;;;;5018504;28;20287;-70
2024/02/16 08:31:17;;;;;;;2.17;1.47;;;12.30;97.30;;;;;;5046984;28;20230;-70
2024/02/16 08:33:45;;;;;;;1.13;1.00;;;12.40;97.30;;;;;;5028085;28;20414;-71
2024/02/16 08:36:10;;;;;;;1.63;1.20;;;12.60;97.30;;;;;;5045437;28;20411;-71
2024/02/16 08:38:39;;;;;;;1.10;1.00;;;12.70;97.30;;;;;;5035228;28;20944;-71
2024/02/16 08:41:05;;;;;;;1.20;1.10;;;12.90;97.30;;;;;;5030233;28;20224;-71
2024/02/16 08:43:30;;;;;;;1.50;1.40;;;12.90;97.30;;;;;;5045036;28;20421;-71
2024/02/16 08:45:56;;;;;;;15.03;1.47;;;12.90;97.30;;;;;;5045186;28;20179;-70
2024/02/16 08:48:24;;;;;;;1.00;0.90;;;13.00;97.30;;;;;;5047307;28;20325;-71
2024/02/16 08:50:49;;;;;;;1.70;1.60;;;13.20;97.30;;;;;;5023197;28;20282;-71
2024/02/16 08:53:16;;;;;;;2.53;2.33;;;13.40;97.30;;;;;;5040620;28;20862;-70
2024/02/16 08:55:42;;;;;;;2.30;1.37;;;13.50;97.30;;;;;;5036375;28;20206;-71
2024/02/16 08:58:08;;;;;;;1.00;0.90;;;13.50;97.30;;;;;;5022021;28;20451;-71
2024/02/16 09:00:34;;;;;;;2.43;2.07;;;13.50;97.30;;;;;;5028291;28;20595;-70
2024/02/16 09:03:02;;;;;;;2.13;2.03;;;13.50;97.30;;;;;;5038522;28;20218;-71
2024/02/16 09:05:28;;;;;;;1.30;1.20;;;13.50;97.30;;;;;;5028756;28;20562;-70
2024/02/16 09:07:53;;;;;;;1.00;1.00;;;13.40;97.30;;;;;;5046637;28;20420;-71
2024/02/16 09:10:19;;;;;;;0.90;0.80;;;13.40;97.30;;;;;;5056138;28;20271;-71
2024/02/16 09:12:45;;;;;;;1.43;1.40;;;13.40;97.30;;;;;;5054328;28;20206;-72
2024/02/16 09:15:11;;;;;;;1.43;1.00;;;13.40;97.30;;;;;;5068926;28;20212;-71
2024/02/16 09:17:37;;;;;;;2.47;1.43;;;13.40;97.30;;;;;;5044679;28;20588;-71
2024/02/16 09:20:04;;;;;;;1.33;1.10;;;13.40;97.30;;;;;;5060074;28;20916;-70
2024/02/16 09:22:30;;;;;;;1.47;1.37;;;13.50;97.30;;;;;;5040272;28;20264;-68
2024/02/16 09:24:59;;;;;;;1.67;1.20;;;13.50;97.30;;;;;;5055694;28;20465;-70
2024/02/16 09:27:25;;;;;;;1.30;1.20;;;13.60;97.30;;;;;;5060530;28;20179;-68
2024/02/16 09:29:50;;;;;;;1.27;1.20;;;13.60;97.30;;;;;;5060838;28;20469;-71
2024/02/16 09:32:16;;;;;;;1.17;1.07;;;13.70;97.30;;;;;;5058619;28;20336;-68
2024/02/16 09:34:41;;;;;;;1.20;1.10;;;13.70;97.30;;;;;;5038280;28;20198;-69
2024/02/16 09:37:07;;;;;;;0.90;0.90;;;13.80;97.30;;;;;;5037220;28;20180;-70
2024/02/16 09:39:34;;;;;;;1.37;1.27;;;13.80;97.30;;;;;;5028076;28;20606;-68
2024/02/16 09:42:00;;;;;;;1.03;0.93;;;13.90;97.30;;;;;;5046558;28;20663;-69
2024/02/16 09:44:26;;;;;;;1.13;1.07;;;13.90;97.30;;;;;;5021469;28;20435;-70
2024/02/16 09:46:54;;;;;;;0.90;0.87;;;14.00;97.30;;;;;;5049430;28;20422;-69
2024/02/16 09:49:20;;;;;;;1.07;0.97;;;14.00;97.30;;;;;;5021028;28;20482;-70
2024/02/16 09:51:45;;;;;;;2.80;2.37;;;14.10;97.30;;;;;;5040623;28;20430;-71
2024/02/16 09:54:11;;;;;;;1.47;1.37;;;14.20;97.30;;;;;;5018995;28;20184;-70
2024/02/16 09:56:37;;;;;;;1.00;0.90;;;14.40;97.30;;;;;;5023781;28;20188;-69
2024/02/16 09:59:03;;;;;;;1.00;0.90;;;14.50;97.30;;;;;;5021713;28;20451;-69
2024/02/16 10:01:29;;;;;;;1.33;1.23;;;14.60;97.30;;;;;;5041940;28;20231;-70
2024/02/16 10:04:07;;;;;;;1.20;1.10;;;14.80;97.30;;;;;;5050141;28;20208;-70
2024/02/16 10:06:33;;;;;;;1.00;0.90;;;15.00;97.30;;;;;;5024372;28;20414;-70
2024/02/16 10:08:58;;;;;;;2.73;1.70;;;15.00;97.30;;;;;;5026973;28;20514;-68
2024/02/16 10:11:30;;;;;;;1.13;1.03;;;15.10;97.20;;;;;;5028174;28;20726;-70
2024/02/16 10:14:02;;;;;;;0.90;0.80;;;15.20;96.60;;;;;;5041166;28;20172;-69
2024/02/16 10:16:28;;;;;;;1.13;1.03;;;15.40;96.80;;;;;;5049811;28;20951;-70
2024/02/16 10:18:56;;;;;;;1.20;1.10;;;15.70;96.40;;;;;;5016526;28;20427;-68
2024/02/16 10:21:29;;;;;;;1.20;1.10;;;15.80;94.60;;;;;;5046890;28;20200;-69
2024/02/16 10:24:08;;;;;;;1.63;1.33;;;15.90;95.20;;;;;;5030693;28;20441;-69
2024/02/16 10:26:38;;;;;;;0.90;0.80;;;16.10;94.30;;;;;;5056064;28;20422;-70
2024/02/16 10:29:05;;;;;;;1.20;1.10;;;16.20;94.00;;;;;;5044967;28;20518;-69
2024/02/16 10:31:32;;;;;;;1.83;1.20;;;16.20;93.50;;;;;;5057034;28;20460;-69
2024/02/16 10:33:59;;;;;;;1.20;1.00;;;16.20;93.30;;;;;;5063045;28;20453;-70
2024/02/16 10:36:28;;;;;;;0.93;0.83;;;16.10;93.70;;;;;;5048356;28;20952;-70
2024/02/16 10:38:54;;;;;;;1.20;1.10;;;16.10;94.20;;;;;;5062597;28;20409;-70
2024/02/16 10:41:21;;;;;;;2.80;1.00;;;16.20;93.50;;;;;;5058714;28;20433;-70
2024/02/16 10:43:48;;;;;;;0.97;0.90;;;16.10;93.10;;;;;;5056382;28;20418;-70
2024/02/16 10:46:16;;;;;;;1.73;1.50;;;16.10;94.30;;;;;;5057028;28;20654;-70
2024/02/16 10:48:42;;;;;;;1.93;1.40;;;16.10;93.30;;;;;;5037681;28;20462;-71
2024/02/16 10:51:09;;;;;;;1.47;1.33;;;16.00;92.80;;;;;;5063040;28;20440;-70
2024/02/16 10:53:36;;;;;;;0.90;0.80;;;15.90;93.30;;;;;;5059584;28;20312;-69
2024/02/16 10:56:01;;;;;;;1.07;1.00;;;15.90;93.70;;;;;;5067861;28;20516;-70
2024/02/16 10:58:29;;;;;;;1.40;1.30;;;16.10;94.20;;;;;;5049458;28;21016;-69
2024/02/16 11:00:56;;;;;;;1.00;0.90;;;16.10;93.70;;;;;;5055784;28;20249;-67
2024/02/16 11:03:27;;;;;;;1.00;0.90;;;16.10;93.30;;;;;;5065484;28;20559;-70
2024/02/16 11:05:54;;;;;;;0.90;0.80;;;16.00;93.10;;;;;;5051489;28;20410;-67
2024/02/16 11:08:23;;;;;;;0.90;0.80;;;15.90;93.40;;;;;;5068707;28;20449;-69
2024/02/16 11:11:03;;;;;;;1.13;1.03;;;15.70;93.40;;;;;;5070304;28;20982;-69
2024/02/16 11:13:32;;;;;;;1.10;1.00;;;15.60;94.00;;;;;;5044740;28;20452;-70
2024/02/16 11:16:00;;;;;;;1.17;1.07;;;15.50;94.60;;;;;;5048334;22;20483;-87
2024/02/16 11:18:27;;;;;;;1.10;1.00;;;15.50;94.80;;;;;;5040500;28;20422;-89
2024/02/16 11:20:54;;;;;;;1.90;1.80;;;15.40;94.80;;;;;;5036590;28;20410;-88
2024/02/16 11:23:28;;;;;;;1.37;1.10;;;15.30;95.50;;;;;;5042251;28;20850;-88
2024/02/16 11:25:53;;;;;;;1.20;1.10;;;15.20;96.00;;;;;;5036821;28;20449;-88
2024/02/16 11:28:19;;;;;;;1.10;1.00;;;15.20;95.90;;;;;;5056637;23;20489;-61
2024/02/16 11:30:44;;;;;;;1.77;1.67;;;15.20;96.30;;;;;;5044305;28;20203;-61
2024/02/16 11:33:14;;;;;;;1.23;1.13;;;15.20;96.20;;;;;;5069987;28;20210;-61
2024/02/16 11:35:39;;;;;;;4.40;2.63;;;15.20;96.40;;;;;;5054193;28;20170;-61
2024/02/16 11:38:05;;;;;;;1.30;1.20;;;15.20;96.30;;;;;;5065184;28;21023;-61
2024/02/16 11:40:31;;;;;;;1.57;1.47;;;15.20;96.70;;;;;;5068062;28;20202;-61
2024/02/16 11:43:00;;;;;;;1.30;1.20;;;15.10;96.90;;;;;;5065871;28;20538;-61
2024/02/16 11:45:26;;;;;;;1.50;1.40;;;15.10;97.00;;;;;;5079186;28;20237;-61
2024/02/16 11:48:02;;;;;;;1.60;1.50;;;15.10;97.20;;;;;;5060267;28;20417;-61
2024/02/16 11:50:28;;;;;;;3.73;1.47;;;15.10;97.30;;;;;;5067244;28;20819;-61
2024/02/16 11:52:54;;;;;;;2.20;1.73;;;15.10;97.30;;;;;;5075810;28;20417;-61
2024/02/16 11:55:21;;;;;;;1.73;1.30;;;15.20;97.30;;;;;;5082342;28;21002;-61
2024/02/16 11:57:50;;;;;;;1.70;1.33;;;15.20;97.30;;;;;;5070030;28;20178;-61
2024/02/16 12:00:16;;;;;;;1.10;1.00;;;15.30;97.30;;;;;;5053373;28;20840;-61
2024/02/16 12:02:41;;;;;;;1.47;1.37;;;15.40;97.30;;;;;;5045313;28;20425;-61
2024/02/16 12:05:07;;;;;;;2.50;1.77;;;15.50;97.30;;;;;;5070928;28;20183;-61
2024/02/16 12:07:36;;;;;;;1.00;0.90;;;15.60;97.30;;;;;;5051762;28;20195;-61
2024/02/16 12:10:04;;;;;;;1.20;1.10;;;15.80;97.10;;;;;;5069837;28;20464;-61
2024/02/16 12:12:31;;;;;;;1.23;1.13;;;15.90;96.70;;;;;;5051989;28;20811;-61
2024/02/16 12:14:58;;;;;;;1.13;1.10;;;16.00;96.50;;;;;;5069774;28;20418;-61
2024/02/16 12:17:23;;;;;;;1.17;1.07;;;16.10;95.90;;;;;;5053261;28;20440;-61
2024/02/16 12:19:51;;;;;;;1.47;1.37;;;16.30;95.90;;;;;;5070664;28;20421;-61
2024/02/16 12:22:20;;;;;;;1.57;1.23;;;16.40;95.80;;;;;;5051561;28;20210;-61
2024/02/16 12:24:47;;;;;;;1.10;1.00;;;16.40;95.20;;;;;;5049908;28;20782;-61
2024/02/16 12:27:12;;;;;;;1.53;1.43;;;16.50;95.10;;;;;;5070539;28;20562;-61
2024/02/16 12:29:39;;;;;;;1.30;1.20;;;16.70;95.10;;;;;;5070067;28;21010;-61
2024/02/16 12:32:05;;;;;;;1.00;0.90;;;16.90;94.80;;;;;;5071429;28;20191;-61
2024/02/16 12:34:31;;;;;;;1.23;1.20;;;16.90;94.10;;;;;;5051952;28;20440;-61
2024/02/16 12:36:56;;;;;;;1.27;1.17;;;16.90;93.40;;;;;;5069790;28;20417;-61
2024/02/16 12:39:22;;;;;;;1.93;1.67;;;16.80;93.30;;;;;;5051904;28;20278;-61
2024/02/16 12:41:48;;;;;;;1.40;1.30;;;16.70;93.00;;;;;;5050735;28;20231;-60
2024/02/16 12:44:14;;;;;;;1.03;0.97;;;16.70;93.10;;;;;;5052172;28;20723;-61
2024/02/16 12:46:40;;;;;;;0.77;0.73;;;16.70;93.30;;;;;;5069762;28;20460;-61
2024/02/16 12:49:06;;;;;;;1.37;1.00;;;16.70;93.50;;;;;;5069314;28;20202;-61
2024/02/16 12:51:32;;;;;;;1.20;1.10;;;16.60;93.30;;;;;;5051406;28;20490;-60
2024/02/16 12:54:00;;;;;;;2.50;1.00;;;16.70;93.10;;;;;;5051802;28;20417;-62
2024/02/16 12:56:25;;;;;;;1.57;1.10;;;16.70;92.70;;;;;;5069643;28;20167;-61
2024/02/16 12:58:52;;;;;;;2.30;2.07;;;16.70;92.70;;;;;;5051284;28;20474;-61
2024/02/16 13:01:18;;;;;;;0.97;0.87;;;16.70;92.60;;;;;;5067843;28;20733;-61
2024/02/16 13:03:44;;;;;;;1.20;1.10;;;16.70;93.00;;;;;;5051687;28;20850;-61
2024/02/16 13:06:11;;;;;;;0.97;0.87;;;16.70;93.30;;;;;;5051257;28;20183;-61
2024/02/16 13:08:37;;;;;;;3.00;1.60;;;16.70;92.80;;;;;;5051176;28;20544;-61
2024/02/16 13:11:03;;;;;;;1.43;1.33;;;16.70;93.00;;;;;;5050755;28;20516;-61
2024/02/16 13:13:28;;;;;;;1.10;0.93;;;16.70;93.30;;;;;;5050662;28;20619;-62
2024/02/16 13:15:56;;;;;;;1.43;1.33;;;16.80;93.00;;;;;;5050762;28;20409;-61
2024/02/16 13:18:21;;;;;;;1.23;1.10;;;16.80;92.80;;;;;;5069370;28;20186;-61
2024/02/16 13:20:47;;;;;;;0.83;0.77;;;16.80;92.60;;;;;;5068351;28;20488;-61
2024/02/16 13:23:13;;;;;;;2.20;1.30;;;16.90;92.60;;;;;;5069631;28;20280;-61
2024/02/16 13:25:38;;;;;;;1.00;0.90;;;17.00;92.40;;;;;;5050669;28;20643;-63
2024/02/16 13:28:04;;;;;;;1.10;1.00;;;17.10;92.40;;;;;;5050349;28;20225;-63
2024/02/16 13:30:30;;;;;;;1.10;1.00;;;17.10;92.90;;;;;;5051263;28;20187;-63
2024/02/16 13:32:57;;;;;;;1.30;1.20;;;17.00;92.80;;;;;;5051267;28;20422;-63
2024/02/16 13:35:22;;;;;;;1.50;1.40;;;17.00;92.90;;;;;;5050444;28;21083;-63
2024/02/16 13:37:48;;;;;;;1.10;1.00;;;16.90;93.10;;;;;;5068848;28;20497;-62
2024/02/16 13:40:14;;;;;;;2.20;1.40;;;16.80;93.00;;;;;;5051038;28;20181;-63
2024/02/16 13:42:40;;;;;;;1.07;0.97;;;16.80;93.00;;;;;;5051664;28;20190;-63
2024/02/16 13:45:06;;;;;;;1.10;1.00;;;16.80;92.70;;;;;;5050637;28;20661;-62
2024/02/16 13:47:32;;;;;;;1.43;1.20;;;16.90;92.80;;;;;;5050076;28;20638;-63
2024/02/16 13:49:59;;;;;;;1.13;1.03;;;17.00;93.20;;;;;;5068902;28;20535;-60
2024/02/16 13:52:25;;;;;;;1.23;1.20;;;17.00;93.00;;;;;;5065407;28;20187;-63
2024/02/16 13:54:50;;;;;;;0.83;0.73;;;17.00;93.20;;;;;;5068652;28;20781;-62
2024/02/16 13:57:16;;;;;;;1.33;1.23;;;17.00;92.50;;;;;;5049625;28;20175;-62
2024/02/16 13:59:42;;;;;;;0.97;0.87;;;17.00;92.30;;;;;;5068068;28;20175;-60
2024/02/16 14:02:09;;;;;;;1.00;1.00;;;17.00;92.40;;;;;;5067963;28;20299;-60
2024/02/16 14:04:34;;;;;;;0.80;0.70;;;17.10;92.60;;;;;;5050385;28;20824;-60
2024/02/16 14:07:00;;;;;;;1.13;1.00;;;17.10;91.90;;;;;;5050254;28;20424;-60
2024/02/16 14:09:26;;;;;;;1.97;1.30;;;17.00;92.20;;;;;;5050265;28;20249;-60
2024/02/16 14:11:53;;;;;;;1.17;1.07;;;17.00;92.70;;;;;;5067473;28;20290;-60
2024/02/16 14:14:19;;;;;;;1.57;1.20;;;16.90;93.10;;;;;;5045118;28;20437;-60
2024/02/16 14:16:45;;;;;;;3.00;1.73;;;16.80;92.90;;;;;;5049352;28;20422;-61
2024/02/16 14:19:10;;;;;;;4.00;1.40;;;16.80;93.10;;;;;;5066046;28;20337;-60
2024/02/16 14:21:36;;;;;;;22.83;14.33;;;16.70;92.80;;;;;;5067381;28;20260;-60
2024/02/16 14:24:02;;;;;;;2.70;1.67;;;16.70;93.20;;;;;;5068496;28;20229;-60
2024/02/16 14:26:27;;;;;;;1.20;1.00;;;16.60;93.00;;;;;;5048863;28;20278;-61
2024/02/16 14:28:55;;;;;;;9.93;6.30;;;16.60;93.00;;;;;;5067939;28;20647;-60
2024/02/16 14:31:21;;;;;;;1.77;1.57;;;16.60;93.70;;;;;;5067755;28;20194;-61
2024/02/16 14:33:49;;;;;;;1.60;1.50;;;16.60;93.50;;;;;;5050102;28;20499;-60
2024/02/16 14:36:15;;;;;;;1.07;0.97;;;16.60;93.10;;;;;;5070206;28;20409;-61
2024/02/16 14:38:40;;;;;;;1.37;0.93;;;16.60;93.00;;;;;;5089620;28;20192;-60
2024/02/16 14:41:06;;;;;;;1.10;1.00;;;16.60;93.20;;;;;;5077740;28;20831;-61
2024/02/16 14:43:33;;;;;;;2.10;0.93;;;16.60;93.20;;;;;;5071256;28;20197;-60
2024/02/16 14:45:59;;;;;;;2.40;1.37;;;16.60;93.20;;;;;;5053285;28;20187;-60
2024/02/16 14:48:25;;;;;;;4.90;1.83;;;16.60;92.90;;;;;;5071877;28;20497;-60
2024/02/16 14:50:52;;;;;;;1.50;1.40;;;16.80;93.10;;;;;;5050612;28;20480;-60
2024/02/16 14:53:21;;;;;;;1.10;1.00;;;17.20;92.60;;;;;;5059192;28;20208;-62
2024/02/16 14:55:48;;;;;;;2.50;1.60;;;17.40;91.80;;;;;;5079858;28;20420;-61
2024/02/16 14:58:14;;;;;;;1.30;1.20;;;17.50;91.50;;;;;;5048809;28;20461;-60
2024/02/16 15:00:40;;;;;;;1.37;1.03;;;17.50;91.30;;;;;;5053599;28;20946;-60
2024/02/16 15:03:05;;;;;;;2.73;1.43;;;17.40;91.50;;;;;;5057343;28;20186;-60
2024/02/16 15:05:31;;;;;;;2.10;1.37;;;17.30;91.50;;;;;;5064010;28;20430;-60
2024/02/16 15:07:57;;;;;;;0.80;0.77;;;17.10;91.80;;;;;;5071477;28;20656;-61
2024/02/16 15:10:23;;;;;;;1.10;1.00;;;17.10;92.20;;;;;;5060822;28;20231;-60
2024/02/16 15:12:49;;;;;;;1.70;1.60;;;17.10;92.50;;;;;;5051279;28;20659;-60
2024/02/16 15:15:14;;;;;;;2.13;1.20;;;17.10;92.50;;;;;;5059564;28;20421;-60
2024/02/16 15:17:40;;;;;;;1.63;1.60;;;17.20;92.40;;;;;;5076278;28;20184;-60
2024/02/16 15:20:07;;;;;;;1.07;0.97;;;17.50;91.50;;;;;;5053322;28;20178;-60
2024/02/16 15:22:33;;;;;;;1.57;1.47;;;17.90;90.90;;;;;;5076476;28;20412;-60
2024/02/16 15:24:59;;;;;;;1.60;1.30;;;17.90;90.50;;;;;;5077334;28;20534;-60
2024/02/16 15:27:28;;;;;;;1.57;1.10;;;17.70;91.10;;;;;;5077525;28;20530;-60
2024/02/16 15:29:53;;;;;;;1.47;1.40;;;17.40;91.20;;;;;;5050162;28;20289;-60
2024/02/16 15:32:19;;;;;;;1.57;1.10;;;17.10;92.00;;;;;;5069062;28;20494;-60
2024/02/16 15:34:47;;;;;;;1.60;1.60;;;17.00;92.60;;;;;;5070388;28;20586;-60
2024/02/16 15:37:13;;;;;;;7.37;3.30;;;16.80;93.00;;;;;;5071289;28;20414;-60
2024/02/16 15:39:39;;;;;;;4.87;3.13;;;16.70;93.50;;;;;;5070197;28;20428;-60
2024/02/16 15:42:06;;;;;;;2.70;2.30;;;16.60;93.90;;;;;;5074701;28;20206;-60
2024/02/16 15:44:32;;;;;;;2.80;1.43;;;16.50;94.10;;;;;;5062941;28;20236;-60
2024/02/16 15:46:58;;;;;;;3.40;1.90;;;16.40;94.20;;;;;;5068862;28;20425;-60
2024/02/16 15:49:23;;;;;;;1.40;1.30;;;16.30;94.40;;;;;;5076944;28;20202;-60
2024/02/16 15:51:49;;;;;;;0.90;0.80;;;16.30;94.80;;;;;;5078594;28;20276;-60
2024/02/16 15:54:14;;;;;;;1.87;1.77;;;16.20;94.90;;;;;;5061831;28;20183;-62
2024/02/16 15:56:40;;;;;;;1.50;1.40;;;16.10;95.30;;;;;;5077454;28;20182;-62
2024/02/16 15:59:05;;;;;;;4.73;2.30;;;16.10;95.40;;;;;;5052123;28;20211;-61
2024/02/16 16:01:32;;;;;;;1.63;1.37;;;16.00;95.60;;;;;;5069998;28;20203;-60
2024/02/16 16:03:58;;;;;;;17.50;7.23;;;16.00;95.60;;;;;;5052005;28;20175;-60
2024/02/16 16:06:23;;;;;;;1.87;1.63;;;15.90;96.00;;;;;;5058729;28;20436;-60
2024/02/16 16:08:49;;;;;;;1.27;1.17;;;15.90;96.10;;;;;;5051766;28;20206;-60
2024/02/16 16:11:15;;;;;;;1.70;1.60;;;15.80;96.40;;;;;;5059179;28;20195;-60
2024/02/16 16:13:41;;;;;;;1.00;0.90;;;15.80;96.50;;;;;;5058856;28;20444;-60
2024/02/16 16:16:07;;;;;;;1.93;1.50;;;15.70;96.70;;;;;;5069358;28;20410;-60
2024/02/16 16:18:35;;;;;;;1.60;1.50;;;15.60;96.90;;;;;;5076783;28;20179;-60
2024/02/16 16:21:02;;;;;;;1.53;1.43;;;15.60;97.00;;;;;;5062421;28;20202;-60
2024/02/16 16:23:28;;;;;;;2.07;1.73;;;15.50;97.30;;;;;;5058596;28;20522;-60
2024/02/16 16:25:55;;;;;;;1.00;0.90;;;15.50;97.30;;;;;;5068156;28;20413;-61
2024/02/16 16:28:21;;;;;;;2.03;1.00;;;15.50;97.30;;;;;;5075019;28;20468;-60
2024/02/16 16:30:47;;;;;;;1.93;1.40;;;15.40;97.30;;;;;;5077193;28;20442;-60
2024/02/16 16:33:12;;;;;;;1.40;1.30;;;15.40;97.30;;;;;;5055882;28;20932;-60
2024/02/16 16:35:38;;;;;;;2.33;1.47;;;15.40;97.30;;;;;;5067263;28;20175;-61
2024/02/16 16:38:06;;;;;;;2.40;1.90;;;15.30;97.30;;;;;;5087076;28;20213;-60
2024/02/16 16:40:31;;;;;;;3.50;2.90;;;15.30;97.30;;;;;;5072097;28;20195;-60
2024/02/16 16:42:57;;;;;;;1.33;1.13;;;15.30;97.30;;;;;;5072674;28;20438;-60
2024/02/16 16:45:23;;;;;;;5.57;2.00;;;15.30;97.30;;;;;;5048991;28;20183;-60
2024/02/16 16:47:49;;;;;;;8.60;2.13;;;15.20;97.30;;;;;;5067921;28;20666;-60
2024/02/16 16:50:19;;;;;;;6.83;2.03;;;15.20;97.30;;;;;;5055921;28;20460;-60
2024/02/16 16:52:45;;;;;;;2.80;2.57;;;15.20;97.30;;;;;;5069808;28;20179;-60
2024/02/16 16:55:11;;;;;;;2.50;2.27;;;15.20;97.30;;;;;;5075049;28;20960;-60
2024/02/16 16:57:36;;;;;;;9.07;2.80;;;15.20;97.30;;;;;;5057974;28;20699;-60
2024/02/16 17:00:04;;;;;;;3.40;2.90;;;15.20;97.30;;;;;;5075485;28;20636;-60
2024/02/16 17:02:30;;;;;;;11.73;4.20;;;15.20;97.30;;;;;;5075575;28;20182;-60
2024/02/16 17:04:56;;;;;;;1.67;1.57;;;15.20;97.30;;;;;;5058371;28;20477;-61
2024/02/16 17:07:23;;;;;;;3.03;1.63;;;15.20;97.30;;;;;;5056491;28;20803;-61
2024/02/16 17:09:54;;;;;;;2.07;1.93;;;15.20;97.30;;;;;;5049451;28;21565;-61
2024/02/16 17:12:23;;;;;;;33.87;2.40;;;15.20;97.30;;;;;;5049964;28;20437;-60
2024/02/16 17:14:52;;;;;;;3.23;1.77;;;15.20;97.30;;;;;;5049855;28;20807;-60
2024/02/16 17:17:20;;;;;;;3.80;2.90;;;15.10;97.30;;;;;;5061798;28;20406;-60
2024/02/16 17:19:46;;;;;;;3.50;2.77;;;15.10;97.30;;;;;;5065426;28;20453;-60
2024/02/16 17:22:12;;;;;;;2.90;2.77;;;15.10;97.30;;;;;;5061295;28;20425;-61
2024/02/16 17:24:38;;;;;;;8.17;1.70;;;15.00;97.30;;;;;;5060722;28;20190;-61
2024/02/16 17:27:04;;;;;;;7.73;2.60;;;15.00;97.30;;;;;;5065180;28;20457;-61
2024/02/16 17:29:30;;;;;;;1.67;1.67;;;15.00;97.30;;;;;;5063257;28;20191;-61
2024/02/16 17:31:57;;;;;;;2.63;2.00;;;14.90;97.30;;;;;;5037503;28;20478;-60
2024/02/16 17:34:23;;;;;;;2.50;2.10;;;14.90;97.30;;;;;;5046819;28;20236;-60
2024/02/16 17:36:49;;;;;;;3.07;2.00;;;14.90;97.30;;;;;;5067365;28;20421;-61
2024/02/16 17:39:15;;;;;;;1.63;1.50;;;14.80;97.30;;;;;;5066116;28;20413;-60
2024/02/16 17:41:41;;;;;;;2.13;1.87;;;14.80;97.30;;;;;;5066335;28;20254;-60
2024/02/16 17:44:06;;;;;;;2.90;2.30;;;14.80;97.30;;;;;;5060636;28;20995;-61